sensor_id;sensor_type;location;lat;lon;timestamp;P1;durP1;ratioP1;P2;durP2;ratioP2
42770;SDS011;28426;42.872;25.314;2023-05-14T00:01:08;5.40;;;1.70;;
42770;SDS011;28426;42.872;25.314;2023-05-14T00:03:38;6.35;;;2.10;;
42770;SDS011;28426;42.872;25.314;2023-05-14T00:06:10;5.88;;;1.80;;
42770;SDS011;28426;42.872;25.314;2023-05-14T00:08:41;4.18;;;1.77;;
42770;SDS011;28426;42.872;25.314;2023-05-14T00:11:11;6.03;;;1.80;;
42770;SDS011;28426;42.872;25.314;2023-05-14T00:13:45;4.20;;;2.15;;
42770;SDS011;28426;42.872;25.314;2023-05-14T00:16:16;4.57;;;1.55;;
42770;SDS011;28426;42.872;25.314;2023-05-14T00:18:47;4.03;;;1.70;;
42770;SDS011;28426;42.872;25.314;2023-05-14T00:21:18;4.88;;;1.60;;
42770;SDS011;28426;42.872;25.314;2023-05-14T00:23:48;4.43;;;2.00;;
42770;SDS011;28426;42.872;25.314;2023-05-14T00:26:19;8.13;;;2.10;;
42770;SDS011;28426;42.872;25.314;2023-05-14T00:28:53;5.80;;;1.80;;
42770;SDS011;28426;42.872;25.314;2023-05-14T00:31:24;4.55;;;1.77;;
42770;SDS011;28426;42.872;25.314;2023-05-14T00:33:55;3.45;;;1.70;;
42770;SDS011;28426;42.872;25.314;2023-05-14T00:36:26;4.53;;;1.60;;
42770;SDS011;28426;42.872;25.314;2023-05-14T00:38:57;7.72;;;2.60;;
42770;SDS011;28426;42.872;25.314;2023-05-14T00:41:28;4.45;;;2.05;;
42770;SDS011;28426;42.872;25.314;2023-05-14T00:44:01;3.78;;;1.65;;
42770;SDS011;28426;42.872;25.314;2023-05-14T00:46:32;6.00;;;2.05;;
42770;SDS011;28426;42.872;25.314;2023-05-14T00:49:04;6.05;;;2.38;;
42770;SDS011;28426;42.872;25.314;2023-05-14T00:51:35;3.72;;;2.00;;
42770;SDS011;28426;42.872;25.314;2023-05-14T00:54:06;3.72;;;1.80;;
42770;SDS011;28426;42.872;25.314;2023-05-14T00:56:37;4.97;;;2.25;;
42770;SDS011;28426;42.872;25.314;2023-05-14T00:59:10;5.72;;;1.92;;
42770;SDS011;28426;42.872;25.314;2023-05-14T01:01:41;7.25;;;2.17;;
42770;SDS011;28426;42.872;25.314;2023-05-14T01:04:12;6.43;;;2.50;;
42770;SDS011;28426;42.872;25.314;2023-05-14T01:06:45;7.95;;;2.58;;
42770;SDS011;28426;42.872;25.314;2023-05-14T01:09:24;7.40;;;2.30;;
42770;SDS011;28426;42.872;25.314;2023-05-14T01:11:59;4.50;;;2.00;;
42770;SDS011;28426;42.872;25.314;2023-05-14T01:14:41;4.15;;;1.90;;
42770;SDS011;28426;42.872;25.314;2023-05-14T01:17:21;4.35;;;1.80;;
42770;SDS011;28426;42.872;25.314;2023-05-14T01:19:54;5.43;;;1.60;;
42770;SDS011;28426;42.872;25.314;2023-05-14T01:22:28;3.40;;;1.40;;
42770;SDS011;28426;42.872;25.314;2023-05-14T01:24:59;4.55;;;1.85;;
42770;SDS011;28426;42.872;25.314;2023-05-14T01:27:30;5.72;;;1.70;;
42770;SDS011;28426;42.872;25.314;2023-05-14T01:30:08;6.22;;;1.73;;
42770;SDS011;28426;42.872;25.314;2023-05-14T01:32:46;5.72;;;1.83;;
42770;SDS011;28426;42.872;25.314;2023-05-14T01:35:20;5.00;;;1.67;;
42770;SDS011;28426;42.872;25.314;2023-05-14T01:37:57;4.68;;;1.70;;
42770;SDS011;28426;42.872;25.314;2023-05-14T01:40:30;4.45;;;1.70;;
42770;SDS011;28426;42.872;25.314;2023-05-14T01:43:02;4.22;;;1.88;;
42770;SDS011;28426;42.872;25.314;2023-05-14T01:45:35;5.68;;;2.05;;
42770;SDS011;28426;42.872;25.314;2023-05-14T01:48:06;4.90;;;1.60;;
42770;SDS011;28426;42.872;25.314;2023-05-14T01:50:37;6.22;;;1.80;;
42770;SDS011;28426;42.872;25.314;2023-05-14T01:53:10;5.10;;;1.65;;
42770;SDS011;28426;42.872;25.314;2023-05-14T01:55:41;6.20;;;1.80;;
42770;SDS011;28426;42.872;25.314;2023-05-14T01:58:12;5.38;;;1.63;;
42770;SDS011;28426;42.872;25.314;2023-05-14T02:00:43;4.68;;;1.80;;
42770;SDS011;28426;42.872;25.314;2023-05-14T02:03:14;4.55;;;1.70;;
42770;SDS011;28426;42.872;25.314;2023-05-14T02:05:45;3.80;;;1.80;;
42770;SDS011;28426;42.872;25.314;2023-05-14T02:08:18;9.20;;;2.00;;
42770;SDS011;28426;42.872;25.314;2023-05-14T02:10:49;8.05;;;2.08;;
42770;SDS011;28426;42.872;25.314;2023-05-14T02:13:21;4.10;;;1.50;;
42770;SDS011;28426;42.872;25.314;2023-05-14T02:15:52;3.47;;;1.63;;
42770;SDS011;28426;42.872;25.314;2023-05-14T02:18:24;4.90;;;1.90;;
42770;SDS011;28426;42.872;25.314;2023-05-14T02:20:55;4.53;;;1.90;;
42770;SDS011;28426;42.872;25.314;2023-05-14T02:23:28;5.32;;;1.60;;
42770;SDS011;28426;42.872;25.314;2023-05-14T02:26:08;6.00;;;2.05;;
42770;SDS011;28426;42.872;25.314;2023-05-14T02:28:39;4.75;;;1.83;;
42770;SDS011;28426;42.872;25.314;2023-05-14T02:31:12;5.07;;;1.52;;
42770;SDS011;28426;42.872;25.314;2023-05-14T02:33:43;5.95;;;1.90;;
42770;SDS011;28426;42.872;25.314;2023-05-14T02:36:14;4.28;;;1.92;;
42770;SDS011;28426;42.872;25.314;2023-05-14T02:38:47;4.60;;;1.63;;
42770;SDS011;28426;42.872;25.314;2023-05-14T02:41:18;3.97;;;1.63;;
42770;SDS011;28426;42.872;25.314;2023-05-14T02:43:51;5.07;;;1.63;;
42770;SDS011;28426;42.872;25.314;2023-05-14T02:46:22;4.78;;;1.73;;
42770;SDS011;28426;42.872;25.314;2023-05-14T02:48:54;4.50;;;1.77;;
42770;SDS011;28426;42.872;25.314;2023-05-14T02:51:25;5.00;;;1.80;;
42770;SDS011;28426;42.872;25.314;2023-05-14T02:53:58;5.45;;;1.92;;
42770;SDS011;28426;42.872;25.314;2023-05-14T02:56:29;4.80;;;1.80;;
42770;SDS011;28426;42.872;25.314;2023-05-14T02:59:00;6.75;;;2.00;;
42770;SDS011;28426;42.872;25.314;2023-05-14T03:01:31;7.53;;;1.92;;
42770;SDS011;28426;42.872;25.314;2023-05-14T03:04:02;5.75;;;1.83;;
42770;SDS011;28426;42.872;25.314;2023-05-14T03:06:34;6.00;;;1.77;;
42770;SDS011;28426;42.872;25.314;2023-05-14T03:09:07;6.32;;;1.85;;
42770;SDS011;28426;42.872;25.314;2023-05-14T03:11:38;4.50;;;1.50;;
42770;SDS011;28426;42.872;25.314;2023-05-14T03:14:09;5.32;;;1.88;;
42770;SDS011;28426;42.872;25.314;2023-05-14T03:16:40;5.07;;;1.85;;
42770;SDS011;28426;42.872;25.314;2023-05-14T03:19:11;5.38;;;2.00;;
42770;SDS011;28426;42.872;25.314;2023-05-14T03:21:43;4.95;;;2.00;;
42770;SDS011;28426;42.872;25.314;2023-05-14T03:24:16;4.13;;;1.70;;
42770;SDS011;28426;42.872;25.314;2023-05-14T03:26:47;3.35;;;1.63;;
42770;SDS011;28426;42.872;25.314;2023-05-14T03:29:18;4.20;;;1.75;;
42770;SDS011;28426;42.872;25.314;2023-05-14T03:31:48;6.22;;;2.00;;
42770;SDS011;28426;42.872;25.314;2023-05-14T03:34:20;5.28;;;2.10;;
42770;SDS011;28426;42.872;25.314;2023-05-14T03:36:51;4.72;;;1.70;;
42770;SDS011;28426;42.872;25.314;2023-05-14T03:39:25;4.93;;;2.03;;
42770;SDS011;28426;42.872;25.314;2023-05-14T03:41:55;5.93;;;2.15;;
42770;SDS011;28426;42.872;25.314;2023-05-14T03:44:26;7.03;;;2.20;;
42770;SDS011;28426;42.872;25.314;2023-05-14T03:46:57;6.38;;;2.17;;
42770;SDS011;28426;42.872;25.314;2023-05-14T03:49:28;6.65;;;2.20;;
42770;SDS011;28426;42.872;25.314;2023-05-14T03:51:59;5.30;;;1.95;;
42770;SDS011;28426;42.872;25.314;2023-05-14T03:54:33;3.60;;;1.80;;
42770;SDS011;28426;42.872;25.314;2023-05-14T03:57:04;4.40;;;1.98;;
42770;SDS011;28426;42.872;25.314;2023-05-14T03:59:35;7.80;;;2.30;;
42770;SDS011;28426;42.872;25.314;2023-05-14T04:02:06;3.83;;;2.20;;
42770;SDS011;28426;42.872;25.314;2023-05-14T04:04:37;6.00;;;2.20;;
42770;SDS011;28426;42.872;25.314;2023-05-14T04:07:08;7.10;;;2.58;;
42770;SDS011;28426;42.872;25.314;2023-05-14T04:09:42;4.63;;;2.40;;
42770;SDS011;28426;42.872;25.314;2023-05-14T04:12:12;4.47;;;2.20;;
42770;SDS011;28426;42.872;25.314;2023-05-14T04:14:43;6.53;;;2.08;;
42770;SDS011;28426;42.872;25.314;2023-05-14T04:17:14;4.43;;;1.92;;
42770;SDS011;28426;42.872;25.314;2023-05-14T04:19:45;4.75;;;2.00;;
42770;SDS011;28426;42.872;25.314;2023-05-14T04:22:15;5.50;;;2.30;;
42770;SDS011;28426;42.872;25.314;2023-05-14T04:24:49;7.07;;;2.53;;
42770;SDS011;28426;42.872;25.314;2023-05-14T04:27:20;8.23;;;2.65;;
42770;SDS011;28426;42.872;25.314;2023-05-14T04:29:51;5.20;;;2.70;;
42770;SDS011;28426;42.872;25.314;2023-05-14T04:32:21;5.38;;;2.40;;
42770;SDS011;28426;42.872;25.314;2023-05-14T04:34:52;9.02;;;2.70;;
42770;SDS011;28426;42.872;25.314;2023-05-14T04:37:23;15.70;;;3.25;;
42770;SDS011;28426;42.872;25.314;2023-05-14T04:39:57;9.88;;;3.25;;
42770;SDS011;28426;42.872;25.314;2023-05-14T04:42:31;7.82;;;2.75;;
42770;SDS011;28426;42.872;25.314;2023-05-14T04:45:01;8.30;;;3.30;;
42770;SDS011;28426;42.872;25.314;2023-05-14T04:47:33;6.70;;;2.53;;
42770;SDS011;28426;42.872;25.314;2023-05-14T04:50:04;5.25;;;2.30;;
42770;SDS011;28426;42.872;25.314;2023-05-14T04:52:36;4.38;;;2.00;;
42770;SDS011;28426;42.872;25.314;2023-05-14T04:55:11;5.63;;;2.10;;
42770;SDS011;28426;42.872;25.314;2023-05-14T04:57:42;7.60;;;2.38;;
42770;SDS011;28426;42.872;25.314;2023-05-14T05:00:13;3.63;;;2.17;;
42770;SDS011;28426;42.872;25.314;2023-05-14T05:02:44;7.07;;;1.88;;
42770;SDS011;28426;42.872;25.314;2023-05-14T05:05:15;8.25;;;2.03;;
42770;SDS011;28426;42.872;25.314;2023-05-14T05:07:45;4.03;;;2.05;;
42770;SDS011;28426;42.872;25.314;2023-05-14T05:10:19;7.03;;;2.25;;
42770;SDS011;28426;42.872;25.314;2023-05-14T05:12:50;4.45;;;1.60;;
42770;SDS011;28426;42.872;25.314;2023-05-14T05:15:21;5.35;;;1.90;;
42770;SDS011;28426;42.872;25.314;2023-05-14T05:17:52;4.35;;;1.77;;
42770;SDS011;28426;42.872;25.314;2023-05-14T05:20:23;6.25;;;2.00;;
42770;SDS011;28426;42.872;25.314;2023-05-14T05:22:54;4.80;;;1.70;;
42770;SDS011;28426;42.872;25.314;2023-05-14T05:25:28;4.97;;;1.65;;
42770;SDS011;28426;42.872;25.314;2023-05-14T05:27:59;3.65;;;1.58;;
42770;SDS011;28426;42.872;25.314;2023-05-14T05:30:29;5.10;;;1.60;;
42770;SDS011;28426;42.872;25.314;2023-05-14T05:33:00;4.43;;;1.63;;
42770;SDS011;28426;42.872;25.314;2023-05-14T05:35:31;3.35;;;1.50;;
42770;SDS011;28426;42.872;25.314;2023-05-14T05:38:02;4.20;;;1.50;;
42770;SDS011;28426;42.872;25.314;2023-05-14T05:40:36;5.45;;;1.70;;
42770;SDS011;28426;42.872;25.314;2023-05-14T05:43:06;4.53;;;1.20;;
42770;SDS011;28426;42.872;25.314;2023-05-14T05:45:37;4.90;;;1.50;;
42770;SDS011;28426;42.872;25.314;2023-05-14T05:48:08;6.72;;;2.08;;
42770;SDS011;28426;42.872;25.314;2023-05-14T05:50:39;4.03;;;1.98;;
42770;SDS011;28426;42.872;25.314;2023-05-14T05:53:11;5.07;;;2.05;;
42770;SDS011;28426;42.872;25.314;2023-05-14T05:55:45;5.90;;;1.80;;
42770;SDS011;28426;42.872;25.314;2023-05-14T05:58:17;6.20;;;2.03;;
42770;SDS011;28426;42.872;25.314;2023-05-14T06:00:48;4.97;;;1.80;;
42770;SDS011;28426;42.872;25.314;2023-05-14T06:03:19;3.92;;;1.63;;
42770;SDS011;28426;42.872;25.314;2023-05-14T06:05:50;5.47;;;1.67;;
42770;SDS011;28426;42.872;25.314;2023-05-14T06:08:21;4.25;;;1.70;;
42770;SDS011;28426;42.872;25.314;2023-05-14T06:10:54;4.00;;;1.80;;
42770;SDS011;28426;42.872;25.314;2023-05-14T06:13:25;4.43;;;2.25;;
42770;SDS011;28426;42.872;25.314;2023-05-14T06:15:56;5.38;;;1.95;;
42770;SDS011;28426;42.872;25.314;2023-05-14T06:18:27;5.80;;;2.00;;
42770;SDS011;28426;42.872;25.314;2023-05-14T06:20:58;5.40;;;1.83;;
42770;SDS011;28426;42.872;25.314;2023-05-14T06:23:29;12.48;;;1.95;;
42770;SDS011;28426;42.872;25.314;2023-05-14T06:26:02;5.88;;;2.50;;
42770;SDS011;28426;42.872;25.314;2023-05-14T06:28:33;5.70;;;1.95;;
42770;SDS011;28426;42.872;25.314;2023-05-14T06:31:04;4.38;;;1.83;;
42770;SDS011;28426;42.872;25.314;2023-05-14T06:33:35;6.18;;;1.85;;
42770;SDS011;28426;42.872;25.314;2023-05-14T06:36:06;10.05;;;2.00;;
42770;SDS011;28426;42.872;25.314;2023-05-14T06:38:37;5.05;;;1.77;;
42770;SDS011;28426;42.872;25.314;2023-05-14T06:41:11;8.25;;;2.30;;
42770;SDS011;28426;42.872;25.314;2023-05-14T06:43:41;4.80;;;1.65;;
42770;SDS011;28426;42.872;25.314;2023-05-14T06:46:12;6.57;;;1.70;;
42770;SDS011;28426;42.872;25.314;2023-05-14T06:48:43;6.03;;;1.85;;
42770;SDS011;28426;42.872;25.314;2023-05-14T06:51:14;8.10;;;1.83;;
42770;SDS011;28426;42.872;25.314;2023-05-14T06:53:45;5.45;;;1.88;;
42770;SDS011;28426;42.872;25.314;2023-05-14T06:56:18;7.82;;;1.95;;
42770;SDS011;28426;42.872;25.314;2023-05-14T06:58:49;5.97;;;1.92;;
42770;SDS011;28426;42.872;25.314;2023-05-14T07:01:20;5.40;;;1.88;;
42770;SDS011;28426;42.872;25.314;2023-05-14T07:03:51;6.20;;;2.72;;
42770;SDS011;28426;42.872;25.314;2023-05-14T07:06:22;7.55;;;2.17;;
42770;SDS011;28426;42.872;25.314;2023-05-14T07:08:53;6.45;;;2.40;;
42770;SDS011;28426;42.872;25.314;2023-05-14T07:11:26;6.18;;;2.20;;
42770;SDS011;28426;42.872;25.314;2023-05-14T07:13:57;6.90;;;2.40;;
42770;SDS011;28426;42.872;25.314;2023-05-14T07:16:28;6.95;;;2.10;;
42770;SDS011;28426;42.872;25.314;2023-05-14T07:18:59;7.30;;;2.22;;
42770;SDS011;28426;42.872;25.314;2023-05-14T07:21:30;6.68;;;1.92;;
42770;SDS011;28426;42.872;25.314;2023-05-14T07:24:01;5.65;;;2.25;;
42770;SDS011;28426;42.872;25.314;2023-05-14T07:26:34;10.30;;;3.53;;
42770;SDS011;28426;42.872;25.314;2023-05-14T07:29:05;8.45;;;2.00;;
42770;SDS011;28426;42.872;25.314;2023-05-14T07:31:36;5.22;;;2.20;;
42770;SDS011;28426;42.872;25.314;2023-05-14T07:34:07;5.70;;;1.88;;
42770;SDS011;28426;42.872;25.314;2023-05-14T07:36:39;5.45;;;2.00;;
42770;SDS011;28426;42.872;25.314;2023-05-14T07:39:10;5.35;;;1.95;;
42770;SDS011;28426;42.872;25.314;2023-05-14T07:41:43;7.00;;;1.92;;
42770;SDS011;28426;42.872;25.314;2023-05-14T07:44:14;8.27;;;2.42;;
42770;SDS011;28426;42.872;25.314;2023-05-14T07:46:45;6.45;;;2.38;;
42770;SDS011;28426;42.872;25.314;2023-05-14T07:49:15;7.20;;;2.28;;
42770;SDS011;28426;42.872;25.314;2023-05-14T07:51:46;5.55;;;2.28;;
42770;SDS011;28426;42.872;25.314;2023-05-14T07:54:17;6.95;;;2.22;;
42770;SDS011;28426;42.872;25.314;2023-05-14T07:56:50;6.10;;;1.90;;
42770;SDS011;28426;42.872;25.314;2023-05-14T07:59:21;6.45;;;2.13;;
42770;SDS011;28426;42.872;25.314;2023-05-14T08:01:52;5.35;;;2.40;;
42770;SDS011;28426;42.872;25.314;2023-05-14T08:04:23;5.22;;;2.00;;
42770;SDS011;28426;42.872;25.314;2023-05-14T08:06:54;4.47;;;1.80;;
42770;SDS011;28426;42.872;25.314;2023-05-14T08:09:25;5.32;;;2.00;;
42770;SDS011;28426;42.872;25.314;2023-05-14T08:11:59;6.55;;;2.00;;
42770;SDS011;28426;42.872;25.314;2023-05-14T08:14:30;9.23;;;1.98;;
42770;SDS011;28426;42.872;25.314;2023-05-14T08:17:00;4.68;;;1.85;;
42770;SDS011;28426;42.872;25.314;2023-05-14T08:19:32;6.32;;;2.10;;
42770;SDS011;28426;42.872;25.314;2023-05-14T08:22:03;4.57;;;2.08;;
42770;SDS011;28426;42.872;25.314;2023-05-14T08:24:34;6.75;;;1.92;;
42770;SDS011;28426;42.872;25.314;2023-05-14T08:27:08;8.10;;;2.40;;
42770;SDS011;28426;42.872;25.314;2023-05-14T08:29:38;7.55;;;2.22;;
42770;SDS011;28426;42.872;25.314;2023-05-14T08:32:09;4.47;;;2.05;;
42770;SDS011;28426;42.872;25.314;2023-05-14T08:34:49;5.82;;;1.95;;
42770;SDS011;28426;42.872;25.314;2023-05-14T08:37:20;5.10;;;2.33;;
42770;SDS011;28426;42.872;25.314;2023-05-14T08:39:51;9.02;;;2.38;;
42770;SDS011;28426;42.872;25.314;2023-05-14T08:42:25;5.32;;;2.00;;
42770;SDS011;28426;42.872;25.314;2023-05-14T08:44:59;6.25;;;2.05;;
42770;SDS011;28426;42.872;25.314;2023-05-14T08:47:31;9.90;;;2.63;;
42770;SDS011;28426;42.872;25.314;2023-05-14T08:50:03;8.05;;;2.40;;
42770;SDS011;28426;42.872;25.314;2023-05-14T08:52:36;3.92;;;2.00;;
42770;SDS011;28426;42.872;25.314;2023-05-14T08:55:07;6.20;;;2.42;;
42770;SDS011;28426;42.872;25.314;2023-05-14T08:57:43;12.52;;;2.78;;
42770;SDS011;28426;42.872;25.314;2023-05-14T09:00:14;4.72;;;2.30;;
42770;SDS011;28426;42.872;25.314;2023-05-14T09:02:45;4.90;;;2.50;;
42770;SDS011;28426;42.872;25.314;2023-05-14T09:05:18;6.07;;;2.28;;
42770;SDS011;28426;42.872;25.314;2023-05-14T09:07:50;6.88;;;2.47;;
42770;SDS011;28426;42.872;25.314;2023-05-14T09:10:21;4.85;;;2.60;;
42770;SDS011;28426;42.872;25.314;2023-05-14T09:12:55;15.25;;;5.10;;
42770;SDS011;28426;42.872;25.314;2023-05-14T09:15:26;8.07;;;2.70;;
42770;SDS011;28426;42.872;25.314;2023-05-14T09:17:58;4.95;;;2.50;;
42770;SDS011;28426;42.872;25.314;2023-05-14T09:20:29;6.80;;;2.80;;
42770;SDS011;28426;42.872;25.314;2023-05-14T09:23:00;6.65;;;3.15;;
42770;SDS011;28426;42.872;25.314;2023-05-14T09:25:31;6.47;;;3.15;;
42770;SDS011;28426;42.872;25.314;2023-05-14T09:28:06;6.75;;;2.90;;
42770;SDS011;28426;42.872;25.314;2023-05-14T09:30:38;6.72;;;2.80;;
42770;SDS011;28426;42.872;25.314;2023-05-14T09:33:08;7.40;;;2.95;;
42770;SDS011;28426;42.872;25.314;2023-05-14T09:35:39;8.27;;;3.10;;
42770;SDS011;28426;42.872;25.314;2023-05-14T09:38:10;9.35;;;3.13;;
42770;SDS011;28426;42.872;25.314;2023-05-14T09:40:41;6.68;;;3.13;;
42770;SDS011;28426;42.872;25.314;2023-05-14T09:43:15;5.82;;;2.55;;
42770;SDS011;28426;42.872;25.314;2023-05-14T09:45:46;6.15;;;2.90;;
42770;SDS011;28426;42.872;25.314;2023-05-14T09:48:16;6.30;;;2.88;;
42770;SDS011;28426;42.872;25.314;2023-05-14T09:50:48;5.75;;;3.13;;
42770;SDS011;28426;42.872;25.314;2023-05-14T09:53:19;8.13;;;2.67;;
42770;SDS011;28426;42.872;25.314;2023-05-14T09:55:50;7.00;;;3.13;;
42770;SDS011;28426;42.872;25.314;2023-05-14T09:58:23;5.00;;;2.90;;
42770;SDS011;28426;42.872;25.314;2023-05-14T10:00:56;7.20;;;3.40;;
42770;SDS011;28426;42.872;25.314;2023-05-14T10:03:28;5.88;;;2.80;;
42770;SDS011;28426;42.872;25.314;2023-05-14T10:06:00;5.82;;;2.95;;
42770;SDS011;28426;42.872;25.314;2023-05-14T10:08:37;6.80;;;2.72;;
42770;SDS011;28426;42.872;25.314;2023-05-14T10:11:13;7.88;;;2.80;;
42770;SDS011;28426;42.872;25.314;2023-05-14T10:13:54;8.02;;;3.10;;
42770;SDS011;28426;42.872;25.314;2023-05-14T10:16:32;7.13;;;3.33;;
42770;SDS011;28426;42.872;25.314;2023-05-14T10:19:04;6.47;;;3.28;;
42770;SDS011;28426;42.872;25.314;2023-05-14T10:21:39;5.45;;;2.70;;
42770;SDS011;28426;42.872;25.314;2023-05-14T10:24:11;6.05;;;2.65;;
42770;SDS011;28426;42.872;25.314;2023-05-14T10:26:43;4.78;;;2.65;;
42770;SDS011;28426;42.872;25.314;2023-05-14T10:29:16;9.27;;;3.80;;
42770;SDS011;28426;42.872;25.314;2023-05-14T10:31:48;10.82;;;4.57;;
42770;SDS011;28426;42.872;25.314;2023-05-14T10:34:30;5.15;;;2.80;;
42770;SDS011;28426;42.872;25.314;2023-05-14T10:37:04;6.28;;;2.80;;
42770;SDS011;28426;42.872;25.314;2023-05-14T10:39:44;6.82;;;2.80;;
42770;SDS011;28426;42.872;25.314;2023-05-14T10:42:16;6.75;;;2.90;;
42770;SDS011;28426;42.872;25.314;2023-05-14T10:44:52;6.18;;;2.42;;
42770;SDS011;28426;42.872;25.314;2023-05-14T10:47:25;5.47;;;2.63;;
42770;SDS011;28426;42.872;25.314;2023-05-14T10:49:58;5.25;;;2.50;;
42770;SDS011;28426;42.872;25.314;2023-05-14T10:52:30;5.07;;;2.40;;
42770;SDS011;28426;42.872;25.314;2023-05-14T10:55:01;5.55;;;2.58;;
42770;SDS011;28426;42.872;25.314;2023-05-14T10:57:34;4.68;;;2.15;;
42770;SDS011;28426;42.872;25.314;2023-05-14T11:00:10;12.57;;;2.70;;
42770;SDS011;28426;42.872;25.314;2023-05-14T11:02:42;7.03;;;2.30;;
42770;SDS011;28426;42.872;25.314;2023-05-14T11:05:14;5.32;;;2.03;;
42770;SDS011;28426;42.872;25.314;2023-05-14T11:07:46;4.25;;;2.45;;
42770;SDS011;28426;42.872;25.314;2023-05-14T11:10:18;5.65;;;2.33;;
42770;SDS011;28426;42.872;25.314;2023-05-14T11:12:52;7.22;;;2.25;;
42770;SDS011;28426;42.872;25.314;2023-05-14T11:15:25;5.80;;;2.33;;
42770;SDS011;28426;42.872;25.314;2023-05-14T11:17:56;7.75;;;2.72;;
42770;SDS011;28426;42.872;25.314;2023-05-14T11:20:27;5.95;;;2.50;;
42770;SDS011;28426;42.872;25.314;2023-05-14T11:22:58;5.53;;;2.30;;
42770;SDS011;28426;42.872;25.314;2023-05-14T11:25:29;4.90;;;2.15;;
42770;SDS011;28426;42.872;25.314;2023-05-14T11:28:00;7.32;;;2.40;;
42770;SDS011;28426;42.872;25.314;2023-05-14T11:30:34;6.63;;;3.65;;
42770;SDS011;28426;42.872;25.314;2023-05-14T11:33:05;4.93;;;2.00;;
42770;SDS011;28426;42.872;25.314;2023-05-14T11:35:36;6.25;;;2.28;;
42770;SDS011;28426;42.872;25.314;2023-05-14T11:38:12;5.88;;;2.40;;
42770;SDS011;28426;42.872;25.314;2023-05-14T11:40:50;5.65;;;2.33;;
42770;SDS011;28426;42.872;25.314;2023-05-14T11:43:21;5.20;;;2.53;;
42770;SDS011;28426;42.872;25.314;2023-05-14T11:45:58;7.00;;;2.28;;
42770;SDS011;28426;42.872;25.314;2023-05-14T11:48:29;5.00;;;2.72;;
42770;SDS011;28426;42.872;25.314;2023-05-14T11:51:03;7.13;;;2.50;;
42770;SDS011;28426;42.872;25.314;2023-05-14T11:53:34;4.53;;;2.45;;
42770;SDS011;28426;42.872;25.314;2023-05-14T11:56:05;4.25;;;2.60;;
42770;SDS011;28426;42.872;25.314;2023-05-14T11:58:36;6.90;;;2.47;;
42770;SDS011;28426;42.872;25.314;2023-05-14T12:01:09;5.50;;;2.60;;
42770;SDS011;28426;42.872;25.314;2023-05-14T12:03:42;5.60;;;2.28;;
42770;SDS011;28426;42.872;25.314;2023-05-14T12:06:14;5.30;;;2.45;;
42770;SDS011;28426;42.872;25.314;2023-05-14T12:08:46;6.22;;;2.55;;
42770;SDS011;28426;42.872;25.314;2023-05-14T12:11:19;5.32;;;2.40;;
42770;SDS011;28426;42.872;25.314;2023-05-14T12:13:51;5.53;;;2.25;;
42770;SDS011;28426;42.872;25.314;2023-05-14T12:16:28;8.40;;;2.83;;
42770;SDS011;28426;42.872;25.314;2023-05-14T12:19:04;4.68;;;2.45;;
42770;SDS011;28426;42.872;25.314;2023-05-14T12:21:35;4.78;;;2.70;;
42770;SDS011;28426;42.872;25.314;2023-05-14T12:24:08;6.00;;;2.78;;
42770;SDS011;28426;42.872;25.314;2023-05-14T12:26:42;5.75;;;3.50;;
42770;SDS011;28426;42.872;25.314;2023-05-14T12:29:14;6.05;;;3.17;;
42770;SDS011;28426;42.872;25.314;2023-05-14T12:31:48;6.18;;;2.88;;
42770;SDS011;28426;42.872;25.314;2023-05-14T12:34:19;8.32;;;4.22;;
42770;SDS011;28426;42.872;25.314;2023-05-14T12:36:50;5.10;;;3.10;;
42770;SDS011;28426;42.872;25.314;2023-05-14T12:39:21;4.63;;;2.95;;
42770;SDS011;28426;42.872;25.314;2023-05-14T12:41:52;4.93;;;2.88;;
42770;SDS011;28426;42.872;25.314;2023-05-14T12:44:23;5.78;;;3.03;;
42770;SDS011;28426;42.872;25.314;2023-05-14T12:46:56;7.55;;;3.10;;
42770;SDS011;28426;42.872;25.314;2023-05-14T12:49:27;6.35;;;3.08;;
42770;SDS011;28426;42.872;25.314;2023-05-14T12:51:58;5.88;;;3.25;;
42770;SDS011;28426;42.872;25.314;2023-05-14T12:54:49;6.00;;;3.08;;
42770;SDS011;28426;42.872;25.314;2023-05-14T12:57:20;5.78;;;2.90;;
42770;SDS011;28426;42.872;25.314;2023-05-14T12:59:50;5.45;;;2.80;;
42770;SDS011;28426;42.872;25.314;2023-05-14T13:02:24;7.00;;;3.78;;
42770;SDS011;28426;42.872;25.314;2023-05-14T13:04:55;6.85;;;3.03;;
42770;SDS011;28426;42.872;25.314;2023-05-14T13:07:29;8.07;;;3.03;;
42770;SDS011;28426;42.872;25.314;2023-05-14T13:10:00;5.65;;;3.22;;
42770;SDS011;28426;42.872;25.314;2023-05-14T13:12:32;7.15;;;4.18;;
42770;SDS011;28426;42.872;25.314;2023-05-14T13:15:03;7.45;;;2.90;;
42770;SDS011;28426;42.872;25.314;2023-05-14T13:17:37;5.47;;;3.03;;
42770;SDS011;28426;42.872;25.314;2023-05-14T13:20:09;6.05;;;3.10;;
42770;SDS011;28426;42.872;25.314;2023-05-14T13:22:40;4.95;;;2.70;;
42770;SDS011;28426;42.872;25.314;2023-05-14T13:25:11;5.55;;;2.50;;
42770;SDS011;28426;42.872;25.314;2023-05-14T13:27:42;5.28;;;2.90;;
42770;SDS011;28426;42.872;25.314;2023-05-14T13:30:13;6.10;;;2.53;;
42770;SDS011;28426;42.872;25.314;2023-05-14T13:32:48;5.85;;;2.75;;
42770;SDS011;28426;42.872;25.314;2023-05-14T13:35:19;6.57;;;2.72;;
42770;SDS011;28426;42.872;25.314;2023-05-14T13:37:50;6.78;;;3.10;;
42770;SDS011;28426;42.872;25.314;2023-05-14T13:40:21;5.82;;;2.95;;
42770;SDS011;28426;42.872;25.314;2023-05-14T13:42:52;4.72;;;2.70;;
42770;SDS011;28426;42.872;25.314;2023-05-14T13:45:23;4.28;;;2.55;;
42770;SDS011;28426;42.872;25.314;2023-05-14T13:47:56;8.65;;;2.60;;
42770;SDS011;28426;42.872;25.314;2023-05-14T13:50:27;5.28;;;2.38;;
42770;SDS011;28426;42.872;25.314;2023-05-14T13:52:58;8.02;;;4.90;;
42770;SDS011;28426;42.872;25.314;2023-05-14T13:55:28;11.05;;;5.05;;
42770;SDS011;28426;42.872;25.314;2023-05-14T13:58:00;4.78;;;2.47;;
42770;SDS011;28426;42.872;25.314;2023-05-14T14:00:31;8.50;;;2.97;;
42770;SDS011;28426;42.872;25.314;2023-05-14T14:03:05;6.40;;;3.05;;
42770;SDS011;28426;42.872;25.314;2023-05-14T14:05:36;8.07;;;2.90;;
42770;SDS011;28426;42.872;25.314;2023-05-14T14:08:07;5.55;;;3.20;;
42770;SDS011;28426;42.872;25.314;2023-05-14T14:10:50;7.53;;;3.38;;
42770;SDS011;28426;42.872;25.314;2023-05-14T14:13:24;8.27;;;3.50;;
42770;SDS011;28426;42.872;25.314;2023-05-14T14:15:55;7.88;;;4.53;;
42770;SDS011;28426;42.872;25.314;2023-05-14T14:18:29;6.40;;;3.25;;
42770;SDS011;28426;42.872;25.314;2023-05-14T14:20:59;5.78;;;2.72;;
42770;SDS011;28426;42.872;25.314;2023-05-14T14:23:30;5.90;;;2.80;;
42770;SDS011;28426;42.872;25.314;2023-05-14T14:26:01;9.00;;;3.30;;
42770;SDS011;28426;42.872;25.314;2023-05-14T14:28:32;5.90;;;3.30;;
42770;SDS011;28426;42.872;25.314;2023-05-14T14:31:03;8.90;;;3.80;;
42770;SDS011;28426;42.872;25.314;2023-05-14T14:33:36;8.80;;;4.45;;
42770;SDS011;28426;42.872;25.314;2023-05-14T14:36:07;8.50;;;4.20;;
42770;SDS011;28426;42.872;25.314;2023-05-14T14:38:38;6.45;;;4.38;;
42770;SDS011;28426;42.872;25.314;2023-05-14T14:41:09;6.65;;;3.40;;
42770;SDS011;28426;42.872;25.314;2023-05-14T14:43:40;8.38;;;3.63;;
42770;SDS011;28426;42.872;25.314;2023-05-14T14:46:11;6.90;;;3.50;;
42770;SDS011;28426;42.872;25.314;2023-05-14T14:48:44;5.60;;;3.60;;
42770;SDS011;28426;42.872;25.314;2023-05-14T14:51:15;9.65;;;3.60;;
42770;SDS011;28426;42.872;25.314;2023-05-14T14:53:46;8.05;;;4.28;;
42770;SDS011;28426;42.872;25.314;2023-05-14T14:56:17;7.28;;;3.47;;
42770;SDS011;28426;42.872;25.314;2023-05-14T14:58:48;4.93;;;3.00;;
42770;SDS011;28426;42.872;25.314;2023-05-14T15:01:19;6.30;;;3.63;;